sensor_id;sensor_type;location;lat;lon;timestamp;temperature;humidity
63317;DHT22;49822;41.468;13.560;2023-07-31T18:56:33;28.60;79.80
63317;DHT22;49822;41.468;13.560;2023-07-31T18:59:00;28.50;80.10
63317;DHT22;49822;41.468;13.560;2023-07-31T19:01:27;28.50;79.90
63317;DHT22;49822;41.468;13.560;2023-07-31T19:03:54;28.60;79.80
63317;DHT22;49822;41.468;13.560;2023-07-31T19:06:20;28.60;79.70
63317;DHT22;49822;41.468;13.560;2023-07-31T19:08:46;28.60;79.70
63317;DHT22;49822;41.468;13.560;2023-07-31T19:11:13;28.70;79.90
63317;DHT22;49822;41.468;13.560;2023-07-31T19:13:40;28.60;79.90
63317;DHT22;49822;41.468;13.560;2023-07-31T19:16:08;28.60;80.00
63317;DHT22;49822;41.468;13.560;2023-07-31T19:18:35;28.50;80.20
63317;DHT22;49822;41.468;13.560;2023-07-31T19:21:01;28.60;80.20
63317;DHT22;49822;41.468;13.560;2023-07-31T19:23:27;28.50;80.30
63317;DHT22;49822;41.468;13.560;2023-07-31T19:25:53;28.50;80.40
63317;DHT22;49822;41.468;13.560;2023-07-31T19:28:19;28.40;80.50
63317;DHT22;49822;41.468;13.560;2023-07-31T19:30:46;28.40;80.50
63317;DHT22;49822;41.468;13.560;2023-07-31T19:33:13;28.40;80.40
63317;DHT22;49822;41.468;13.560;2023-07-31T19:35:40;28.30;80.60
63317;DHT22;49822;41.468;13.560;2023-07-31T19:38:06;28.40;80.70
63317;DHT22;49822;41.468;13.560;2023-07-31T19:40:33;28.40;80.90
63317;DHT22;49822;41.468;13.560;2023-07-31T19:42:59;28.20;80.90
63317;DHT22;49822;41.468;13.560;2023-07-31T19:45:27;28.30;80.90
63317;DHT22;49822;41.468;13.560;2023-07-31T19:47:53;28.10;81.20
63317;DHT22;49822;41.468;13.560;2023-07-31T19:50:19;28.20;81.10
63317;DHT22;49822;41.468;13.560;2023-07-31T19:52:45;28.10;81.40
63317;DHT22;49822;41.468;13.560;2023-07-31T19:55:12;28.00;81.80
63317;DHT22;49822;41.468;13.560;2023-07-31T19:57:39;27.90;81.70
63317;DHT22;49822;41.468;13.560;2023-07-31T20:00:05;27.80;82.10
63317;DHT22;49822;41.468;13.560;2023-07-31T20:02:35;27.70;82.90
63317;DHT22;49822;41.468;13.560;2023-07-31T20:05:01;27.40;83.40
63317;DHT22;49822;41.468;13.560;2023-07-31T20:07:27;27.40;83.20
63317;DHT22;49822;41.468;13.560;2023-07-31T20:09:54;27.40;83.60
63317;DHT22;49822;41.468;13.560;2023-07-31T20:12:24;27.40;83.60
63317;DHT22;49822;41.468;13.560;2023-07-31T20:14:53;27.40;83.70
63317;DHT22;49822;41.468;13.560;2023-07-31T20:17:22;27.40;83.50
63317;DHT22;49822;41.468;13.560;2023-07-31T20:19:49;27.40;83.30
63317;DHT22;49822;41.468;13.560;2023-07-31T20:22:15;27.40;83.20
63317;DHT22;49822;41.468;13.560;2023-07-31T20:24:41;27.40;82.90
63317;DHT22;49822;41.468;13.560;2023-07-31T20:27:07;27.30;83.50
63317;DHT22;49822;41.468;13.560;2023-07-31T20:29:33;27.10;84.30
63317;DHT22;49822;41.468;13.560;2023-07-31T20:31:59;26.70;85.30
63317;DHT22;49822;41.468;13.560;2023-07-31T20:34:26;26.40;86.00
63317;DHT22;49822;41.468;13.560;2023-07-31T20:36:52;26.40;85.60
63317;DHT22;49822;41.468;13.560;2023-07-31T20:39:18;26.60;85.20
63317;DHT22;49822;41.468;13.560;2023-07-31T20:41:44;26.70;85.00
63317;DHT22;49822;41.468;13.560;2023-07-31T20:44:10;26.70;84.70
63317;DHT22;49822;41.468;13.560;2023-07-31T20:46:37;26.80;84.50
63317;DHT22;49822;41.468;13.560;2023-07-31T20:49:03;26.80;84.80
63317;DHT22;49822;41.468;13.560;2023-07-31T20:51:29;26.70;84.70
63317;DHT22;49822;41.468;13.560;2023-07-31T20:53:55;26.60;84.80
63317;DHT22;49822;41.468;13.560;2023-07-31T20:56:21;26.60;84.50
63317;DHT22;49822;41.468;13.560;2023-07-31T20:58:47;26.70;84.80
63317;DHT22;49822;41.468;13.560;2023-07-31T21:01:14;26.60;85.20
63317;DHT22;49822;41.468;13.560;2023-07-31T21:03:40;26.40;85.50
63317;DHT22;49822;41.468;13.560;2023-07-31T21:06:06;26.40;85.60
63317;DHT22;49822;41.468;13.560;2023-07-31T21:08:33;26.30;86.20
63317;DHT22;49822;41.468;13.560;2023-07-31T21:10:59;26.40;85.50
63317;DHT22;49822;41.468;13.560;2023-07-31T21:13:25;26.40;85.20
63317;DHT22;49822;41.468;13.560;2023-07-31T21:15:55;26.40;84.90
63317;DHT22;49822;41.468;13.560;2023-07-31T21:18:23;26.50;84.80
63317;DHT22;49822;41.468;13.560;2023-07-31T21:20:50;26.50;84.60
63317;DHT22;49822;41.468;13.560;2023-07-31T21:23:17;26.50;84.30
63317;DHT22;49822;41.468;13.560;2023-07-31T21:25:43;26.60;84.10
63317;DHT22;49822;41.468;13.560;2023-07-31T21:28:10;26.50;84.20
63317;DHT22;49822;41.468;13.560;2023-07-31T21:30:40;26.50;84.30
63317;DHT22;49822;41.468;13.560;2023-07-31T21:33:06;26.20;86.10
63317;DHT22;49822;41.468;13.560;2023-07-31T21:35:32;25.90;87.10
63317;DHT22;49822;41.468;13.560;2023-07-31T21:37:59;25.40;88.20
63317;DHT22;49822;41.468;13.560;2023-07-31T21:40:25;25.20;89.20
63317;DHT22;49822;41.468;13.560;2023-07-31T21:42:52;25.20;89.10
63317;DHT22;49822;41.468;13.560;2023-07-31T21:45:23;25.30;88.60
63317;DHT22;49822;41.468;13.560;2023-07-31T21:47:49;25.30;87.90
63317;DHT22;49822;41.468;13.560;2023-07-31T21:50:16;25.50;87.30
63317;DHT22;49822;41.468;13.560;2023-07-31T21:52:42;25.70;87.10
63317;DHT22;49822;41.468;13.560;2023-07-31T21:55:08;25.80;86.50
63317;DHT22;49822;41.468;13.560;2023-07-31T21:57:34;25.80;86.10
63317;DHT22;49822;41.468;13.560;2023-07-31T22:00:03;25.90;85.50
63317;DHT22;49822;41.468;13.560;2023-07-31T22:02:31;25.60;86.20
63317;DHT22;49822;41.468;13.560;2023-07-31T22:04:57;25.30;86.70
63317;DHT22;49822;41.468;13.560;2023-07-31T22:07:23;25.20;86.90
63317;DHT22;49822;41.468;13.560;2023-07-31T22:09:49;25.30;86.40
63317;DHT22;49822;41.468;13.560;2023-07-31T22:12:15;25.40;86.30
63317;DHT22;49822;41.468;13.560;2023-07-31T22:14:42;25.40;85.90
63317;DHT22;49822;41.468;13.560;2023-07-31T22:17:08;25.40;86.00
63317;DHT22;49822;41.468;13.560;2023-07-31T22:19:34;25.50;86.00
63317;DHT22;49822;41.468;13.560;2023-07-31T22:22:00;25.50;85.90
63317;DHT22;49822;41.468;13.560;2023-07-31T22:24:26;25.60;85.80
63317;DHT22;49822;41.468;13.560;2023-07-31T22:26:52;25.70;85.60
63317;DHT22;49822;41.468;13.560;2023-07-31T22:29:20;25.70;85.40
63317;DHT22;49822;41.468;13.560;2023-07-31T22:31:46;25.60;85.60
63317;DHT22;49822;41.468;13.560;2023-07-31T22:34:13;25.70;85.40
63317;DHT22;49822;41.468;13.560;2023-07-31T22:36:39;25.70;85.30
63317;DHT22;49822;41.468;13.560;2023-07-31T22:39:05;25.80;85.40
63317;DHT22;49822;41.468;13.560;2023-07-31T22:41:32;25.70;85.30
63317;DHT22;49822;41.468;13.560;2023-07-31T22:43:58;25.70;85.40
63317;DHT22;49822;41.468;13.560;2023-07-31T22:46:25;25.70;85.30
63317;DHT22;49822;41.468;13.560;2023-07-31T22:48:52;25.80;85.40
63317;DHT22;49822;41.468;13.560;2023-07-31T22:51:19;25.70;85.30
63317;DHT22;49822;41.468;13.560;2023-07-31T22:53:45;25.70;85.20
63317;DHT22;49822;41.468;13.560;2023-07-31T22:56:12;25.60;85.40
63317;DHT22;49822;41.468;13.560;2023-07-31T22:58:38;25.50;85.60
63317;DHT22;49822;41.468;13.560;2023-07-31T23:01:05;25.50;85.80
63317;DHT22;49822;41.468;13.560;2023-07-31T23:03:32;25.50;85.90
63317;DHT22;49822;41.468;13.560;2023-07-31T23:05:59;25.50;85.80
63317;DHT22;49822;41.468;13.560;2023-07-31T23:08:27;25.50;85.70
63317;DHT22;49822;41.468;13.560;2023-07-31T23:10:53;25.50;85.70
63317;DHT22;49822;41.468;13.560;2023-07-31T23:13:20;25.40;85.90
63317;DHT22;49822;41.468;13.560;2023-07-31T23:15:46;25.30;86.60
63317;DHT22;49822;41.468;13.560;2023-07-31T23:18:14;25.20;86.60
63317;DHT22;49822;41.468;13.560;2023-07-31T23:20:47;25.20;86.50
63317;DHT22;49822;41.468;13.560;2023-07-31T23:23:14;25.20;86.50
63317;DHT22;49822;41.468;13.560;2023-07-31T23:25:40;25.30;86.50
63317;DHT22;49822;41.468;13.560;2023-07-31T23:28:06;25.30;86.10
63317;DHT22;49822;41.468;13.560;2023-07-31T23:34:20;25.30;85.80
63317;DHT22;49822;41.468;13.560;2023-07-31T23:36:47;25.20;86.40
63317;DHT22;49822;41.468;13.560;2023-07-31T23:39:13;25.00;86.80
63317;DHT22;49822;41.468;13.560;2023-07-31T23:41:39;24.70;88.10
63317;DHT22;49822;41.468;13.560;2023-07-31T23:44:05;24.40;89.20
63317;DHT22;49822;41.468;13.560;2023-07-31T23:46:32;24.20;90.20
63317;DHT22;49822;41.468;13.560;2023-07-31T23:48:59;24.10;90.50
63317;DHT22;49822;41.468;13.560;2023-07-31T23:51:25;24.20;90.50
63317;DHT22;49822;41.468;13.560;2023-07-31T23:53:51;24.30;89.90
63317;DHT22;49822;41.468;13.560;2023-07-31T23:56:17;24.50;89.70
63317;DHT22;49822;41.468;13.560;2023-07-31T23:58:43;24.60;89.10
